Main page
METAR-TAF:

METAR-TAF

Airports :

Rarotonga, Cook Islands

Rarotonga International Airport

latitude: 21-12S, longitude: 159-49W, elevation: 7 m

Current weather observation

The report was made 1 hour and 1 minutes ago, at 21:00 UTC
Wind 6 kt from the West/Southwest
Temperature 27°C
Humidity 79%
Pressure 1005 hPa
Visibility 10 km or more
Scattered clouds at a height of 2100 ft
Scattered clouds at a height of 29000 ft

METAR: NCRG 192100Z 24006KT 9999 SCT021 SCT290 27/23 Q1005

Time: 12:01 (22:01 UTC)

Forecast

The report was made 4 hours and 43 minutes ago, at 17:18 UTC
Forecast valid from 19 at 18 UTC to 20 at 18 UTC
Wind 6 kt from the South
Visibility 10 km or more
Scattered clouds at a height of 1800 ft
Scattered clouds at a height of 10000 ft
Probability 30% :
Temporary
from 19 at 18 UTC to 20 at 06 UTC
Visibility: 5000 m
Broken clouds at a height of 1500 ft
rain showers

TAF: NCRG 191718Z 1918/2018 18006KT 9999 SCT018 SCT100 PROB30 TEMPO 1918/2006 5000 SHRA BKN015

Weather observations and forecasts of more than 4000 airports (METAR and TAF reports).

The available stations are represented by yellow and red dots on the map.

Hover mouse over dot to see the name of the station.

Then click to see weather observations and forecasts.

To change the map : click on the green buttons with a black cross to zoom in, on the green button with a dash to zoom out, or on the green arrows for adjacent maps.


METAR-TAF: